createdAt,value
2023-02-02T00:02:08.533Z,7.07
2023-02-02T00:04:38.617Z,7.73
2023-02-02T00:07:07.633Z,7.37
2023-02-02T00:09:35.739Z,7.47
2023-02-02T00:12:03.966Z,7.97
2023-02-02T00:14:32.035Z,8.57
2023-02-02T00:17:00.092Z,8.47
2023-02-02T00:19:30.566Z,8.53
2023-02-02T00:22:00.237Z,7.83
2023-02-02T00:24:28.541Z,7.77
2023-02-02T00:26:58.706Z,7.90
2023-02-02T00:29:28.919Z,7.47
2023-02-02T00:31:57.563Z,7.93
2023-02-02T00:34:27.100Z,7.73
2023-02-02T00:36:55.752Z,7.93
2023-02-02T00:39:26.593Z,8.80
2023-02-02T00:41:55.144Z,8.03
2023-02-02T00:44:41.211Z,7.67
2023-02-02T00:47:09.212Z,7.87
2023-02-02T00:49:37.270Z,8.40
2023-02-02T00:52:05.470Z,7.40
2023-02-02T00:54:35.005Z,7.40
2023-02-02T00:57:03.023Z,7.77
2023-02-02T00:59:31.132Z,7.17
2023-02-02T01:01:59.111Z,7.27
2023-02-02T01:04:27.254Z,7.30
2023-02-02T01:06:55.168Z,8.27
2023-02-02T01:09:23.248Z,8.00
2023-02-02T01:11:52.685Z,7.90
2023-02-02T01:14:21.213Z,7.37
2023-02-02T01:16:49.529Z,7.03
2023-02-02T01:19:17.884Z,7.03
2023-02-02T01:21:45.999Z,7.57
2023-02-02T01:24:14.503Z,7.57
2023-02-02T01:26:42.662Z,6.87
2023-02-02T01:29:12.316Z,7.47
2023-02-02T01:31:40.750Z,7.70
2023-02-02T01:34:08.998Z,7.50
2023-02-02T01:36:37.099Z,7.93
2023-02-02T01:39:05.623Z,7.83
2023-02-02T01:41:33.782Z,8.17
2023-02-02T01:44:04.113Z,8.20
2023-02-02T01:46:34.748Z,7.57
2023-02-02T01:49:09.169Z,7.10
2023-02-02T01:51:43.581Z,8.03
2023-02-02T01:54:17.013Z,7.57
2023-02-02T01:56:52.799Z,7.50
2023-02-02T01:59:21.369Z,7.67
2023-02-02T02:01:55.026Z,7.93
2023-02-02T02:04:24.676Z,7.37
2023-02-02T02:06:53.821Z,7.60
2023-02-02T02:09:22.228Z,7.57
2023-02-02T02:11:50.317Z,7.07
2023-02-02T02:14:36.348Z,7.63
2023-02-02T02:17:41.823Z,7.67
2023-02-02T02:21:17.287Z,7.23
2023-02-02T02:24:40.213Z,7.37
2023-02-02T02:27:27.088Z,7.47
2023-02-02T02:30:13.166Z,7.40
2023-02-02T02:32:51.483Z,7.67
2023-02-02T02:35:30.430Z,7.40
2023-02-02T02:38:04.888Z,7.77
2023-02-02T02:40:37.939Z,7.30
2023-02-02T02:43:11.376Z,7.17
2023-02-02T02:45:40.587Z,7.23
2023-02-02T02:48:11.963Z,8.13
2023-02-02T02:50:40.273Z,8.70
2023-02-02T02:53:12.669Z,7.17
2023-02-02T02:55:48.205Z,7.93
2023-02-02T02:58:22.027Z,7.60
2023-02-02T03:00:59.969Z,7.83
2023-02-02T03:03:42.590Z,7.30
2023-02-02T03:06:16.157Z,7.37
2023-02-02T03:08:50.412Z,7.23
2023-02-02T03:11:19.091Z,7.17
2023-02-02T03:13:47.945Z,7.33
2023-02-02T03:16:17.583Z,8.07
2023-02-02T03:18:47.064Z,7.80
2023-02-02T03:21:15.081Z,7.30
2023-02-02T03:23:43.147Z,7.97
2023-02-02T03:26:11.755Z,7.33
2023-02-02T03:28:39.900Z,8.40
2023-02-02T03:31:08.761Z,7.03
2023-02-02T03:33:38.608Z,8.27
2023-02-02T03:36:09.279Z,7.20
2023-02-02T03:38:37.474Z,8.23
2023-02-02T03:41:06.838Z,7.63
2023-02-02T03:43:34.855Z,8.13
2023-02-02T03:46:04.802Z,8.43
2023-02-02T03:48:35.679Z,7.67
2023-02-02T03:51:08.693Z,8.07
2023-02-02T03:53:36.812Z,7.83
2023-02-02T03:56:05.268Z,7.10
2023-02-02T03:58:33.429Z,8.33
2023-02-02T04:01:04.286Z,8.13
2023-02-02T04:03:32.314Z,8.20
2023-02-02T04:06:00.579Z,7.23
2023-02-02T04:08:30.239Z,8.50
2023-02-02T04:10:58.438Z,7.70
2023-02-02T04:13:28.377Z,8.37
2023-02-02T04:16:00.807Z,7.80
2023-02-02T04:18:29.276Z,8.13
2023-02-02T04:20:59.468Z,7.73
2023-02-02T04:23:30.179Z,7.67
2023-02-02T04:25:58.932Z,8.23
2023-02-02T04:28:28.116Z,7.77
2023-02-02T04:30:56.919Z,7.70
2023-02-02T04:33:26.741Z,7.93
2023-02-02T04:35:55.238Z,7.47
2023-02-02T04:38:23.385Z,7.53
2023-02-02T04:40:52.825Z,7.63
2023-02-02T04:43:20.838Z,7.07
2023-02-02T04:45:50.165Z,7.97
2023-02-02T04:48:18.196Z,7.67
2023-02-02T04:50:46.250Z,8.37
2023-02-02T04:53:14.225Z,7.10
2023-02-02T04:55:42.309Z,7.93
2023-02-02T04:58:11.708Z,7.53
2023-02-02T05:00:39.742Z,7.10
2023-02-02T05:03:07.929Z,7.93
2023-02-02T05:05:36.121Z,7.87
2023-02-02T05:08:04.159Z,7.67
2023-02-02T05:10:32.182Z,8.30
2023-02-02T05:13:00.218Z,7.83
2023-02-02T05:15:29.565Z,8.13
2023-02-02T05:17:58.518Z,7.70
2023-02-02T05:20:26.507Z,7.30
2023-02-02T05:22:54.433Z,7.40
2023-02-02T05:25:22.681Z,7.17
2023-02-02T05:27:50.839Z,8.53
2023-02-02T05:30:19.173Z,7.63
2023-02-02T05:32:48.698Z,7.30
2023-02-02T05:35:16.878Z,9.10
2023-02-02T05:37:44.955Z,8.17
2023-02-02T05:40:13.529Z,8.23
2023-02-02T05:42:41.637Z,8.20
2023-02-02T05:45:10.998Z,8.10
2023-02-02T05:47:38.886Z,7.67
2023-02-02T05:50:09.548Z,7.63
2023-02-02T05:52:38.590Z,8.13
2023-02-02T05:55:07.555Z,7.43
2023-02-02T05:57:35.578Z,8.67
2023-02-02T06:00:04.569Z,7.50
2023-02-02T06:02:32.569Z,8.27
2023-02-02T06:05:00.520Z,8.17
2023-02-02T06:07:30.039Z,8.30
2023-02-02T06:09:58.297Z,7.93
2023-02-02T06:12:26.247Z,8.07
2023-02-02T06:14:54.178Z,8.33
2023-02-02T06:17:22.581Z,8.93
2023-02-02T06:19:50.673Z,8.43
2023-02-02T06:22:18.584Z,7.53
2023-02-02T06:24:47.868Z,7.87
2023-02-02T06:27:15.788Z,8.00
2023-02-02T06:29:43.785Z,7.67
2023-02-02T06:32:11.920Z,8.57
2023-02-02T06:34:40.039Z,8.80
2023-02-02T06:37:08.328Z,7.33
2023-02-02T06:39:36.341Z,8.57
2023-02-02T06:42:20.391Z,7.80
2023-02-02T06:44:49.025Z,7.73
2023-02-02T06:47:16.961Z,7.80
2023-02-02T06:49:45.015Z,7.33
2023-02-02T06:52:13.020Z,7.87
2023-02-02T06:54:41.006Z,7.80
2023-02-02T06:57:10.559Z,7.73
2023-02-02T06:59:40.948Z,7.60
2023-02-02T07:02:12.095Z,7.97
2023-02-02T07:04:40.167Z,7.27
2023-02-02T07:07:08.139Z,7.40
2023-02-02T07:09:36.739Z,8.00
2023-02-02T07:12:05.026Z,7.13
2023-02-02T07:14:34.420Z,7.43
2023-02-02T07:17:02.377Z,6.73
2023-02-02T07:19:30.566Z,7.07
2023-02-02T07:21:58.505Z,8.37
2023-02-02T07:24:27.603Z,7.23
2023-02-02T07:26:55.903Z,8.00
2023-02-02T07:29:24.209Z,6.37
2023-02-02T07:31:53.673Z,8.13
2023-02-02T07:34:21.612Z,8.20
2023-02-02T07:36:49.786Z,7.70
2023-02-02T07:39:17.843Z,8.37
2023-02-02T07:41:45.794Z,7.43
2023-02-02T07:44:16.557Z,7.80
2023-02-02T07:46:44.984Z,6.93
2023-02-02T07:49:17.446Z,6.20
2023-02-02T07:51:47.944Z,6.83
2023-02-02T07:54:16.605Z,7.43
2023-02-02T07:56:44.886Z,6.97
2023-02-02T07:59:13.097Z,7.37
2023-02-02T08:01:41.139Z,6.90
2023-02-02T08:04:09.383Z,7.13
2023-02-02T08:06:41.274Z,6.87
2023-02-02T08:09:10.657Z,7.13
2023-02-02T08:11:40.133Z,6.47
2023-02-02T08:14:08.487Z,6.97
2023-02-02T08:16:36.870Z,6.15
2023-02-02T08:19:05.301Z,6.60
2023-02-02T08:21:34.193Z,7.17
2023-02-02T08:24:05.182Z,6.03
2023-02-02T08:26:33.806Z,7.27
2023-02-02T08:29:04.158Z,8.10
2023-02-02T08:31:34.409Z,7.60
2023-02-02T08:34:02.461Z,7.03
2023-02-02T08:36:31.472Z,8.83
2023-02-02T08:39:04.174Z,7.90
2023-02-02T08:41:32.590Z,6.87
2023-02-02T08:44:00.832Z,7.17
2023-02-02T08:46:29.266Z,6.87
2023-02-02T08:48:57.297Z,6.63
2023-02-02T08:51:25.258Z,5.97
2023-02-02T08:53:53.239Z,5.47
2023-02-02T08:56:24.052Z,7.27
2023-02-02T08:58:55.586Z,7.33
2023-02-02T09:01:25.158Z,5.93
2023-02-02T09:03:55.344Z,6.00
2023-02-02T09:06:27.429Z,6.25
2023-02-02T09:08:55.451Z,6.20
2023-02-02T09:11:24.921Z,5.93
2023-02-02T09:13:56.242Z,5.77
2023-02-02T09:16:25.184Z,6.73
2023-02-02T09:18:53.322Z,6.40
2023-02-02T09:21:21.800Z,5.83
2023-02-02T09:23:51.383Z,6.83
2023-02-02T09:26:21.818Z,5.90
2023-02-02T09:28:53.394Z,6.50
2023-02-02T09:31:21.626Z,6.43
2023-02-02T09:33:50.003Z,6.67
2023-02-02T09:36:20.344Z,5.80
2023-02-02T09:38:49.307Z,5.77
2023-02-02T09:41:35.920Z,5.10
2023-02-02T09:44:14.722Z,6.57
2023-02-02T09:46:55.437Z,5.80
2023-02-02T09:49:27.162Z,5.90
2023-02-02T09:52:00.793Z,5.83
2023-02-02T09:54:34.538Z,5.63
2023-02-02T09:57:06.539Z,6.30
2023-02-02T09:59:41.650Z,7.03
2023-02-02T10:02:26.045Z,6.80
2023-02-02T10:04:57.489Z,6.27
2023-02-02T10:07:32.200Z,6.20
2023-02-02T10:10:06.270Z,6.50
2023-02-02T10:12:43.862Z,5.50
2023-02-02T10:15:20.573Z,6.43
2023-02-02T10:17:53.969Z,6.23
2023-02-02T10:20:34.965Z,6.20
2023-02-02T10:23:13.257Z,6.60
2023-02-02T10:25:50.563Z,6.80
2023-02-02T10:28:34.272Z,6.73
2023-02-02T10:31:03.918Z,6.33
2023-02-02T10:33:38.948Z,6.13
2023-02-02T10:36:17.532Z,6.63
2023-02-02T10:38:53.040Z,7.13
2023-02-02T10:41:30.401Z,5.93
2023-02-02T10:44:17.695Z,6.63
2023-02-02T10:46:50.259Z,6.83
2023-02-02T10:49:28.205Z,6.17
2023-02-02T10:52:00.854Z,6.53
2023-02-02T10:54:55.351Z,6.18
2023-02-02T10:57:35.670Z,5.57
2023-02-02T11:00:12.317Z,6.05
2023-02-02T11:02:41.864Z,6.00
2023-02-02T11:05:34.181Z,6.27
2023-02-02T11:08:02.537Z,6.13
2023-02-02T11:10:33.417Z,6.23
2023-02-02T11:13:02.815Z,6.17
2023-02-02T11:15:32.101Z,5.83
2023-02-02T11:18:15.934Z,6.93
2023-02-02T11:20:46.681Z,7.03
2023-02-02T11:23:19.504Z,5.87
2023-02-02T11:25:47.658Z,6.10
2023-02-02T11:28:22.170Z,6.60
2023-02-02T11:30:52.612Z,6.53
2023-02-02T11:33:29.182Z,6.17
2023-02-02T11:35:58.775Z,5.93
2023-02-02T11:38:27.677Z,6.83
2023-02-02T11:40:58.486Z,5.93
2023-02-02T11:43:30.110Z,6.67
2023-02-02T11:46:03.077Z,5.60
2023-02-02T11:48:35.824Z,5.53
2023-02-02T11:51:04.913Z,7.03
2023-02-02T11:53:35.264Z,6.47
2023-02-02T11:56:07.139Z,6.67
2023-02-02T11:58:45.460Z,6.20
2023-02-02T12:01:26.018Z,6.03
2023-02-02T12:03:57.120Z,5.90
2023-02-02T12:06:27.211Z,7.00
2023-02-02T12:08:59.561Z,5.83
2023-02-02T12:11:38.873Z,6.47
2023-02-02T12:14:21.597Z,5.80
2023-02-02T12:17:07.583Z,5.53
2023-02-02T12:20:07.846Z,6.27
2023-02-02T12:22:50.376Z,5.93
2023-02-02T12:25:38.313Z,5.70
2023-02-02T12:28:20.171Z,6.90
2023-02-02T12:30:57.112Z,6.13
2023-02-02T12:33:35.911Z,5.73
2023-02-02T12:36:34.241Z,5.77
2023-02-02T12:39:22.311Z,5.90
2023-02-02T12:42:21.508Z,5.77
2023-02-02T12:45:04.244Z,5.33
2023-02-02T12:47:40.973Z,5.93
2023-02-02T12:50:24.668Z,6.63
2023-02-02T12:53:15.488Z,6.10
2023-02-02T12:55:48.211Z,6.00
2023-02-02T12:58:26.924Z,6.07
2023-02-02T13:01:24.159Z,5.50
2023-02-02T13:04:14.032Z,5.60
2023-02-02T13:07:18.210Z,5.97
2023-02-02T13:09:53.142Z,6.03
2023-02-02T13:12:25.057Z,6.57
2023-02-02T13:14:57.738Z,6.67
2023-02-02T13:17:30.978Z,6.00
2023-02-02T13:20:04.516Z,5.63
2023-02-02T13:22:37.603Z,5.90
2023-02-02T13:25:15.904Z,5.53
2023-02-02T13:27:45.255Z,6.47
2023-02-02T13:30:24.021Z,5.50
2023-02-02T13:32:54.523Z,7.00
2023-02-02T13:35:27.011Z,5.33
2023-02-02T13:38:00.104Z,6.20
2023-02-02T13:40:34.102Z,6.33
2023-02-02T13:43:12.829Z,6.00
2023-02-02T13:45:50.018Z,5.93
2023-02-02T13:48:28.225Z,5.93
2023-02-02T13:51:21.893Z,6.63
2023-02-02T13:54:11.842Z,6.97
2023-02-02T13:56:56.797Z,6.17
2023-02-02T13:59:49.057Z,6.03
2023-02-02T14:02:25.482Z,5.70
2023-02-02T14:04:59.303Z,5.77
2023-02-02T14:07:41.751Z,6.47
2023-02-02T14:10:24.299Z,6.10
2023-02-02T14:12:54.790Z,6.88
2023-02-02T14:15:38.656Z,6.73
2023-02-02T14:18:08.544Z,7.10
2023-02-02T14:20:57.186Z,7.27
2023-02-02T14:23:51.234Z,7.00
2023-02-02T14:26:40.313Z,6.43
2023-02-02T14:29:39.577Z,6.20
2023-02-02T14:32:42.561Z,6.43
2023-02-02T14:35:55.359Z,6.53
2023-02-02T14:38:38.513Z,7.77
2023-02-02T14:41:36.041Z,6.23
2023-02-02T14:44:05.461Z,6.40
2023-02-02T14:46:40.930Z,7.93
2023-02-02T14:49:20.880Z,7.43
2023-02-02T14:51:53.347Z,8.33
2023-02-02T14:54:26.397Z,6.47
2023-02-02T14:56:59.516Z,7.17
2023-02-02T14:59:31.372Z,6.13
2023-02-02T15:02:10.372Z,6.47
2023-02-02T15:04:40.194Z,6.32
2023-02-02T15:07:55.737Z,7.43
2023-02-02T15:11:32.232Z,6.72
2023-02-02T15:14:07.450Z,7.23
2023-02-02T15:16:39.450Z,5.97
2023-02-02T15:19:15.297Z,7.50
2023-02-02T15:21:48.863Z,7.70
2023-02-02T15:24:25.731Z,7.07
2023-02-02T15:26:55.755Z,7.80
2023-02-02T15:29:34.621Z,6.77
2023-02-02T15:32:07.121Z,7.17
2023-02-02T15:34:42.183Z,8.30
2023-02-02T15:37:16.999Z,7.50
2023-02-02T15:39:49.301Z,8.20
2023-02-02T15:42:37.654Z,7.40
2023-02-02T15:45:06.324Z,7.47
2023-02-02T15:47:37.467Z,7.33
2023-02-02T15:50:18.090Z,6.85
2023-02-02T15:52:50.378Z,7.13
2023-02-02T15:55:23.584Z,7.13
2023-02-02T15:57:54.285Z,7.15
2023-02-02T16:00:28.402Z,7.73
2023-02-02T16:03:03.219Z,7.10
2023-02-02T16:05:45.547Z,7.40
2023-02-02T16:08:20.008Z,6.75
2023-02-02T16:10:49.502Z,8.10
2023-02-02T16:13:26.330Z,7.27
2023-02-02T16:15:59.688Z,6.65
2023-02-02T16:18:27.973Z,7.55
2023-02-02T16:20:57.126Z,7.63
2023-02-02T16:23:31.701Z,6.13
2023-02-02T16:26:02.535Z,8.57
2023-02-02T16:28:31.012Z,8.70
2023-02-02T16:31:01.073Z,9.13
2023-02-02T16:33:31.539Z,7.72
2023-02-02T16:35:59.609Z,8.63
2023-02-02T16:38:34.816Z,9.77
2023-02-02T16:41:07.651Z,11.57
2023-02-02T16:43:38.077Z,8.87
2023-02-02T16:46:10.404Z,7.97
2023-02-02T16:48:40.469Z,10.03
2023-02-02T16:51:27.710Z,9.70
2023-02-02T16:54:05.514Z,9.80
2023-02-02T16:56:36.245Z,9.80
2023-02-02T16:59:07.689Z,8.27
2023-02-02T17:01:40.735Z,8.13
2023-02-02T17:04:20.669Z,7.55
2023-02-02T17:06:52.847Z,7.72
2023-02-02T17:09:34.718Z,7.30
2023-02-02T17:12:10.669Z,9.33
2023-02-02T17:14:52.499Z,7.20
2023-02-02T17:17:20.541Z,7.93
2023-02-02T17:19:49.742Z,9.23
2023-02-02T17:22:19.988Z,7.43
2023-02-02T17:24:51.792Z,7.77
2023-02-02T17:27:27.369Z,8.23
2023-02-02T17:29:55.843Z,7.50
2023-02-02T17:32:24.940Z,8.27
2023-02-02T17:34:52.931Z,7.63
2023-02-02T17:37:20.909Z,7.20
2023-02-02T17:39:50.817Z,7.53
2023-02-02T17:42:25.666Z,7.45
2023-02-02T17:44:53.633Z,8.65
2023-02-02T17:47:21.749Z,7.22
2023-02-02T17:49:49.706Z,9.77
2023-02-02T17:52:17.602Z,7.45
2023-02-02T17:54:45.552Z,11.40
2023-02-02T17:57:15.584Z,9.63
2023-02-02T17:59:43.627Z,7.60
2023-02-02T18:02:14.001Z,7.93
2023-02-02T18:04:43.650Z,8.07
2023-02-02T18:07:13.271Z,7.77
2023-02-02T18:09:41.321Z,8.90
2023-02-02T18:12:09.517Z,8.70
2023-02-02T18:14:39.061Z,8.60
2023-02-02T18:17:08.322Z,8.60
2023-02-02T18:19:38.318Z,9.13
2023-02-02T18:22:06.562Z,7.77
2023-02-02T18:24:34.500Z,8.50
2023-02-02T18:27:02.811Z,8.27
2023-02-02T18:29:30.835Z,7.47
2023-02-02T18:32:00.848Z,8.53
2023-02-02T18:34:30.993Z,8.83
2023-02-02T18:36:59.253Z,8.70
2023-02-02T18:39:27.535Z,8.57
2023-02-02T18:41:55.654Z,8.43
2023-02-02T18:44:24.367Z,8.13
2023-02-02T18:46:53.095Z,8.57
2023-02-02T18:49:22.939Z,7.97
2023-02-02T18:51:50.867Z,8.03
2023-02-02T18:54:18.825Z,8.17
2023-02-02T18:56:47.071Z,8.10
2023-02-02T18:59:15.530Z,7.93
2023-02-02T19:01:43.598Z,7.40
2023-02-02T19:04:11.818Z,7.40
2023-02-02T19:06:59.021Z,7.50
2023-02-02T19:09:27.044Z,7.73
2023-02-02T19:11:55.612Z,7.70
2023-02-02T19:14:26.640Z,7.57
2023-02-02T19:17:00.286Z,7.63
2023-02-02T19:19:32.191Z,7.67
2023-02-02T19:22:04.592Z,7.37
2023-02-02T19:24:38.427Z,9.03
2023-02-02T19:27:35.175Z,7.73
2023-02-02T19:30:05.978Z,7.13
2023-02-02T19:32:35.199Z,7.23
2023-02-02T19:35:04.246Z,7.63
2023-02-02T19:37:34.441Z,7.23
2023-02-02T19:40:18.322Z,7.73
2023-02-02T19:42:48.275Z,8.00
2023-02-02T19:45:22.717Z,8.50
2023-02-02T19:47:52.586Z,8.07
2023-02-02T19:50:23.039Z,8.10
2023-02-02T19:52:53.478Z,7.77
2023-02-02T19:55:27.006Z,7.60
2023-02-02T19:58:01.365Z,7.47
2023-02-02T20:00:33.723Z,7.47
2023-02-02T20:03:04.974Z,7.37
2023-02-02T20:05:35.986Z,7.20
2023-02-02T20:08:10.205Z,7.77
2023-02-02T20:10:42.530Z,8.53
2023-02-02T20:13:17.287Z,8.27
2023-02-02T20:15:45.401Z,7.17
2023-02-02T20:18:18.446Z,7.87
2023-02-02T20:20:50.012Z,6.83
2023-02-02T20:23:39.096Z,7.40
2023-02-02T20:26:24.291Z,7.30
2023-02-02T20:28:54.886Z,7.90
2023-02-02T20:31:25.432Z,6.63
2023-02-02T20:33:57.665Z,8.03
2023-02-02T20:36:33.776Z,7.80
2023-02-02T20:39:22.950Z,7.83
2023-02-02T20:41:52.023Z,7.33
2023-02-02T20:44:20.048Z,8.23
2023-02-02T20:46:48.316Z,8.60
2023-02-02T20:49:16.269Z,8.37
2023-02-02T20:51:44.461Z,7.67
2023-02-02T20:54:13.938Z,8.27
2023-02-02T20:56:41.910Z,7.85
2023-02-02T20:59:09.997Z,8.27
2023-02-02T21:01:38.019Z,7.93
2023-02-02T21:04:09.385Z,7.43
2023-02-02T21:06:39.293Z,8.23
2023-02-02T21:09:09.543Z,7.40
2023-02-02T21:11:40.027Z,7.33
2023-02-02T21:14:08.174Z,6.70
2023-02-02T21:16:36.471Z,6.93
2023-02-02T21:19:06.792Z,7.67
2023-02-02T21:21:34.794Z,8.23
2023-02-02T21:24:02.777Z,8.33
2023-02-02T21:26:31.105Z,7.87
2023-02-02T21:29:00.562Z,7.73
2023-02-02T21:31:29.131Z,7.10
2023-02-02T21:33:57.194Z,7.57
2023-02-02T21:36:33.612Z,7.90
2023-02-02T21:39:12.130Z,7.40
2023-02-02T21:41:40.260Z,7.43
2023-02-02T21:44:16.081Z,6.53
2023-02-02T21:46:44.721Z,7.93
2023-02-02T21:49:21.185Z,7.13
2023-02-02T21:51:49.226Z,6.83
2023-02-02T21:54:23.283Z,6.57
2023-02-02T21:56:52.103Z,6.73
2023-02-02T21:59:23.013Z,7.77
2023-02-02T22:01:53.168Z,7.10
2023-02-02T22:04:23.540Z,7.37
2023-02-02T22:06:53.790Z,7.33
2023-02-02T22:09:24.302Z,7.07
2023-02-02T22:11:55.951Z,8.10
2023-02-02T22:14:32.782Z,7.40
2023-02-02T22:17:01.422Z,7.97
2023-02-02T22:19:33.654Z,7.50
2023-02-02T22:22:13.314Z,7.30
2023-02-02T22:24:41.497Z,6.70
2023-02-02T22:27:20.511Z,6.33
2023-02-02T22:29:50.351Z,6.97
2023-02-02T22:32:18.337Z,6.57
2023-02-02T22:34:46.289Z,7.50
2023-02-02T22:37:14.209Z,7.53
2023-02-02T22:39:43.374Z,7.60
2023-02-02T22:42:11.540Z,8.13
2023-02-02T22:44:39.615Z,7.47
2023-02-02T22:47:08.924Z,7.73
2023-02-02T22:49:36.891Z,8.17
2023-02-02T22:52:05.126Z,7.90
2023-02-02T22:54:33.127Z,8.63
2023-02-02T22:57:01.167Z,7.67
2023-02-02T22:59:29.144Z,8.63
2023-02-02T23:01:57.163Z,7.97
2023-02-02T23:04:26.523Z,7.13
2023-02-02T23:06:54.516Z,7.20
2023-02-02T23:09:22.524Z,7.03
2023-02-02T23:11:50.619Z,7.20
2023-02-02T23:14:18.598Z,7.10
2023-02-02T23:16:46.796Z,7.20
2023-02-02T23:19:14.725Z,8.57
2023-02-02T23:21:44.032Z,7.00
2023-02-02T23:24:12.191Z,6.93
2023-02-02T23:26:40.225Z,7.33
2023-02-02T23:29:08.271Z,6.13
2023-02-02T23:31:36.383Z,7.57
2023-02-02T23:34:04.426Z,6.47
2023-02-02T23:36:32.436Z,7.07
2023-02-02T23:39:01.773Z,7.07
2023-02-02T23:41:29.712Z,6.73
2023-02-02T23:43:57.716Z,7.47
2023-02-02T23:46:25.896Z,7.00
2023-02-02T23:48:54.152Z,7.83
2023-02-02T23:51:22.337Z,7.87
2023-02-02T23:53:50.391Z,7.37
2023-02-02T23:56:19.741Z,7.03
2023-02-02T23:58:47.759Z,7.70
